createdAt,value
2022-09-20T00:01:50.968Z,9.12
2022-09-20T00:04:19.101Z,8.96
2022-09-20T00:06:47.336Z,9.15
2022-09-20T00:09:15.364Z,9.17
2022-09-20T00:11:45.496Z,8.83
2022-09-20T00:14:14.975Z,8.88
2022-09-20T00:16:43.676Z,8.96
2022-09-20T00:19:18.039Z,8.91
2022-09-20T00:21:46.261Z,8.82
2022-09-20T00:24:14.505Z,8.81
2022-09-20T00:26:42.557Z,8.76
2022-09-20T00:29:12.823Z,8.67
2022-09-20T00:31:42.902Z,8.58
2022-09-20T00:34:29.565Z,8.75
2022-09-20T00:36:57.559Z,8.98
2022-09-20T00:39:25.879Z,8.71
2022-09-20T00:41:54.024Z,8.51
2022-09-20T00:44:44.522Z,8.44
2022-09-20T00:47:23.856Z,8.52
2022-09-20T00:49:56.820Z,8.75
2022-09-20T00:52:25.288Z,8.54
2022-09-20T00:54:53.628Z,8.33
2022-09-20T00:57:21.908Z,8.25
2022-09-20T00:59:51.043Z,8.18
2022-09-20T01:02:23.547Z,8.31
2022-09-20T01:04:51.920Z,8.35
2022-09-20T01:07:23.352Z,8.34
2022-09-20T01:09:51.976Z,8.28
2022-09-20T01:12:24.545Z,8.10
2022-09-20T01:14:53.208Z,8.09
2022-09-20T01:17:24.718Z,8.10
2022-09-20T01:20:06.976Z,8.05
2022-09-20T01:22:42.394Z,8.07
2022-09-20T01:25:15.162Z,8.09
2022-09-20T01:27:46.935Z,8.00
2022-09-20T01:30:17.137Z,8.15
2022-09-20T01:33:00.782Z,8.17
2022-09-20T01:35:30.174Z,8.17
2022-09-20T01:38:11.361Z,8.09
2022-09-20T01:40:46.742Z,8.07
2022-09-20T01:43:22.313Z,8.05
2022-09-20T01:45:52.060Z,7.95
2022-09-20T01:48:27.241Z,8.03
2022-09-20T01:51:25.276Z,8.02
2022-09-20T01:54:25.647Z,8.15
2022-09-20T01:57:27.556Z,8.11
2022-09-20T02:00:06.528Z,8.20
2022-09-20T02:03:14.259Z,8.23
2022-09-20T02:06:09.786Z,8.16
2022-09-20T02:09:04.859Z,8.10
2022-09-20T02:11:44.483Z,8.32
2022-09-20T02:14:36.560Z,8.74
2022-09-20T02:17:13.965Z,8.23
2022-09-20T02:20:04.978Z,8.24
2022-09-20T02:22:44.511Z,8.13
2022-09-20T02:25:24.984Z,8.42
2022-09-20T02:28:02.772Z,8.20
2022-09-20T02:30:38.897Z,8.34
2022-09-20T02:33:25.580Z,8.29
2022-09-20T02:36:04.240Z,8.11
2022-09-20T02:38:43.728Z,8.00
2022-09-20T02:41:37.185Z,7.90
2022-09-20T02:44:10.602Z,7.84
2022-09-20T02:46:43.571Z,7.85
2022-09-20T02:49:18.211Z,7.90
2022-09-20T02:51:51.996Z,7.90
2022-09-20T02:54:35.415Z,7.96
2022-09-20T02:57:06.969Z,7.88
2022-09-20T02:59:41.725Z,7.91
2022-09-20T03:02:17.701Z,8.05
2022-09-20T03:04:57.052Z,7.99
2022-09-20T03:07:33.834Z,8.09
2022-09-20T03:10:08.780Z,7.97
2022-09-20T03:12:44.839Z,7.94
2022-09-20T03:15:19.922Z,7.91
2022-09-20T03:17:52.223Z,7.87
2022-09-20T03:20:32.714Z,7.87
2022-09-20T03:23:11.892Z,7.97
2022-09-20T03:25:49.394Z,7.97
2022-09-20T03:28:28.029Z,7.91
2022-09-20T03:31:05.040Z,8.04
2022-09-20T03:33:40.929Z,7.96
2022-09-20T03:36:20.354Z,8.06
2022-09-20T03:39:25.665Z,8.02
2022-09-20T03:42:04.209Z,8.15
2022-09-20T03:44:58.761Z,7.96
2022-09-20T03:47:45.390Z,7.91
2022-09-20T03:50:24.945Z,8.03
2022-09-20T03:53:21.128Z,8.04
2022-09-20T03:56:01.278Z,8.11
2022-09-20T03:58:39.911Z,8.14
2022-09-20T04:01:21.046Z,8.05
2022-09-20T04:03:55.649Z,8.18
2022-09-20T04:06:41.514Z,8.26
2022-09-20T04:09:32.754Z,8.17
2022-09-20T04:12:05.552Z,8.22
2022-09-20T04:14:38.966Z,8.13
2022-09-20T04:17:19.557Z,8.23
2022-09-20T04:19:52.201Z,8.26
2022-09-20T04:22:22.222Z,8.18
2022-09-20T04:24:54.747Z,8.09
2022-09-20T04:27:27.284Z,8.12
2022-09-20T04:29:59.775Z,8.00
2022-09-20T04:32:33.613Z,7.90
2022-09-20T04:35:24.871Z,7.92
2022-09-20T04:37:53.543Z,7.95
2022-09-20T04:40:29.793Z,7.91
2022-09-20T04:43:26.047Z,7.83
2022-09-20T04:46:33.067Z,7.71
2022-09-20T04:49:33.864Z,7.60
2022-09-20T04:52:22.431Z,7.66
2022-09-20T04:55:27.115Z,7.66
2022-09-20T04:58:19.298Z,7.70
2022-09-20T05:01:07.668Z,7.76
2022-09-20T05:04:09.365Z,7.72
2022-09-20T05:06:56.768Z,7.59
2022-09-20T05:09:51.697Z,7.55
2022-09-20T05:12:42.274Z,7.60
2022-09-20T05:15:23.758Z,7.61
2022-09-20T05:18:13.105Z,7.69
2022-09-20T05:20:56.926Z,7.86
2022-09-20T05:23:55.554Z,7.86
2022-09-20T05:26:31.011Z,7.75
2022-09-20T05:29:07.693Z,7.80
2022-09-20T05:31:40.616Z,7.77
2022-09-20T05:38:11.654Z,7.86
2022-09-20T05:40:53.119Z,7.67
2022-09-20T05:43:26.578Z,7.68
2022-09-20T05:46:05.439Z,7.83
2022-09-20T05:48:42.127Z,7.81
2022-09-20T05:51:28.853Z,7.88
2022-09-20T05:54:19.575Z,7.90
2022-09-20T05:56:53.762Z,7.96
2022-09-20T05:59:30.643Z,7.98
2022-09-20T06:02:05.523Z,8.01
2022-09-20T06:04:41.109Z,8.09
2022-09-20T06:07:17.852Z,8.13
2022-09-20T06:10:19.582Z,8.15
2022-09-20T06:12:55.258Z,8.21
2022-09-20T06:15:29.063Z,8.35
2022-09-20T06:18:47.081Z,8.51
2022-09-20T06:21:35.416Z,8.69
2022-09-20T06:24:07.015Z,8.80
2022-09-20T06:26:54.095Z,8.93
2022-09-20T06:29:28.797Z,8.99
2022-09-20T06:31:57.032Z,8.94
2022-09-20T06:34:27.072Z,8.95
2022-09-20T06:37:16.278Z,9.10
2022-09-20T06:40:08.483Z,9.12
2022-09-20T06:42:37.739Z,9.19
2022-09-20T06:45:06.699Z,9.17
2022-09-20T06:47:38.645Z,9.21
2022-09-20T06:50:08.020Z,9.20
2022-09-20T06:52:37.592Z,9.24
2022-09-20T06:55:08.957Z,9.19
2022-09-20T06:57:39.106Z,9.28
2022-09-20T07:00:11.594Z,9.34
2022-09-20T07:02:40.202Z,9.47
2022-09-20T07:05:11.581Z,9.50
2022-09-20T07:07:41.128Z,9.63
2022-09-20T07:10:09.994Z,9.85
2022-09-20T07:12:38.048Z,9.91
2022-09-20T07:15:07.330Z,9.99
2022-09-20T07:17:35.626Z,9.96
2022-09-20T07:20:04.330Z,10.07
2022-09-20T07:22:32.443Z,10.31
2022-09-20T07:25:02.539Z,10.44
2022-09-20T07:27:30.747Z,10.40
2022-09-20T07:29:58.770Z,10.74
2022-09-20T07:32:27.218Z,10.79
2022-09-20T07:34:55.337Z,10.91
2022-09-20T07:37:23.585Z,10.97
2022-09-20T07:39:52.217Z,11.32
2022-09-20T07:42:21.814Z,11.58
2022-09-20T07:44:50.817Z,11.81
2022-09-20T07:47:25.336Z,11.79
2022-09-20T07:49:53.653Z,11.84
2022-09-20T07:52:21.828Z,11.87
2022-09-20T07:54:50.064Z,12.08
2022-09-20T07:57:18.559Z,12.16
2022-09-20T07:59:48.261Z,12.13
2022-09-20T08:02:18.367Z,12.43
2022-09-20T08:04:49.935Z,12.29
2022-09-20T08:07:20.330Z,12.12
2022-09-20T08:09:48.466Z,12.03
2022-09-20T08:15:11.719Z,12.26
2022-09-20T08:17:40.614Z,12.44
2022-09-20T08:20:11.039Z,12.62
2022-09-20T08:22:42.126Z,12.68
2022-09-20T08:25:10.507Z,12.54
2022-09-20T08:27:39.077Z,12.70
2022-09-20T08:30:10.559Z,12.72
2022-09-20T08:32:41.302Z,12.93
2022-09-20T08:35:18.855Z,13.08
2022-09-20T08:37:47.656Z,13.05
2022-09-20T08:40:16.756Z,13.23
2022-09-20T08:42:48.283Z,13.37
2022-09-20T08:45:33.706Z,13.61
2022-09-20T08:48:05.726Z,13.18
2022-09-20T08:50:34.706Z,13.33
2022-09-20T08:53:05.083Z,13.49
2022-09-20T08:55:41.712Z,13.50
2022-09-20T08:58:11.854Z,13.51
2022-09-20T09:00:42.228Z,13.67
2022-09-20T09:03:19.535Z,13.82
2022-09-20T09:05:52.073Z,13.88
2022-09-20T09:08:21.950Z,13.92
2022-09-20T09:10:55.677Z,13.95
2022-09-20T09:13:36.305Z,13.94
2022-09-20T09:16:10.972Z,14.01
2022-09-20T09:18:44.447Z,13.71
2022-09-20T09:21:20.117Z,13.96
2022-09-20T09:24:01.422Z,14.02
2022-09-20T09:26:30.303Z,13.89
2022-09-20T09:29:17.200Z,14.45
2022-09-20T09:31:48.195Z,14.47
2022-09-20T09:34:27.911Z,14.43
2022-09-20T09:36:56.480Z,14.51
2022-09-20T09:39:28.454Z,14.63
2022-09-20T09:42:01.070Z,14.67
2022-09-20T09:44:32.864Z,14.48
2022-09-20T09:47:04.016Z,14.17
2022-09-20T09:50:03.701Z,14.27
2022-09-20T09:52:35.520Z,14.51
2022-09-20T09:55:05.897Z,14.71
2022-09-20T09:57:42.467Z,14.92
2022-09-20T10:00:20.373Z,14.98
2022-09-20T10:03:09.443Z,15.10
2022-09-20T10:05:43.269Z,14.78
2022-09-20T10:08:18.866Z,14.68
2022-09-20T10:10:59.604Z,14.71
2022-09-20T10:13:37.102Z,14.35
2022-09-20T10:16:14.031Z,14.85
2022-09-20T10:18:54.660Z,15.07
2022-09-20T10:21:37.986Z,15.36
2022-09-20T10:24:20.040Z,15.88
2022-09-20T10:27:02.837Z,15.29
2022-09-20T10:29:48.137Z,15.44
2022-09-20T10:32:35.676Z,14.91
2022-09-20T10:35:15.463Z,14.94
2022-09-20T10:37:56.908Z,14.94
2022-09-20T10:40:48.404Z,14.63
2022-09-20T10:43:26.021Z,15.20
2022-09-20T10:46:27.929Z,15.01
2022-09-20T10:48:57.508Z,15.83
2022-09-20T10:51:44.715Z,15.79
2022-09-20T10:54:22.812Z,15.54
2022-09-20T10:56:57.192Z,15.40
2022-09-20T10:59:41.568Z,15.49
2022-09-20T11:02:35.857Z,15.39
2022-09-20T11:05:29.527Z,15.41
2022-09-20T11:08:06.719Z,15.44
2022-09-20T11:10:37.635Z,15.43
2022-09-20T11:13:09.900Z,15.47
2022-09-20T11:15:41.890Z,15.53
2022-09-20T11:18:14.486Z,15.40
2022-09-20T11:20:45.431Z,15.48
2022-09-20T11:23:26.630Z,15.51
2022-09-20T11:26:00.005Z,14.85
2022-09-20T11:28:31.137Z,15.52
2022-09-20T11:31:11.875Z,15.45
2022-09-20T11:33:46.115Z,15.35
2022-09-20T11:36:18.749Z,14.93
2022-09-20T11:38:59.572Z,14.77
2022-09-20T11:41:43.068Z,14.66
2022-09-20T11:44:18.718Z,15.56
2022-09-20T11:46:58.309Z,16.08
2022-09-20T11:49:30.379Z,16.21
2022-09-20T11:52:40.918Z,16.53
2022-09-20T11:55:31.233Z,16.27
2022-09-20T11:58:03.997Z,16.01
2022-09-20T12:00:39.133Z,16.50
2022-09-20T12:03:22.746Z,15.96
2022-09-20T12:05:59.622Z,16.33
2022-09-20T12:08:30.447Z,16.62
2022-09-20T12:11:05.967Z,16.70
2022-09-20T12:13:36.727Z,15.96
2022-09-20T12:16:11.707Z,16.73
2022-09-20T12:19:07.322Z,17.22
2022-09-20T12:22:08.666Z,16.68
2022-09-20T12:24:45.594Z,16.95
2022-09-20T12:28:12.638Z,17.64
2022-09-20T12:30:50.073Z,18.05
2022-09-20T12:33:22.347Z,18.13
2022-09-20T12:36:33.636Z,17.88
2022-09-20T12:42:33.951Z,17.33
2022-09-20T12:45:19.782Z,17.94
2022-09-20T12:47:55.011Z,17.43
2022-09-20T12:50:41.613Z,17.31
2022-09-20T12:53:19.149Z,16.48
2022-09-20T12:55:55.175Z,16.49
2022-09-20T12:58:32.500Z,16.63
2022-09-20T13:01:38.166Z,16.21
2022-09-20T13:04:57.687Z,17.46
2022-09-20T13:07:42.695Z,16.44
2022-09-20T13:10:33.673Z,17.44
2022-09-20T13:14:01.548Z,18.61
2022-09-20T13:20:06.804Z,17.18
2022-09-20T13:26:49.708Z,16.88
2022-09-20T13:30:47.360Z,16.39
2022-09-20T13:32:55.223Z,16.23
2022-09-20T13:39:37.763Z,15.92
2022-09-20T13:54:06.719Z,17.48
2022-09-20T14:00:18.938Z,18.32
2022-09-20T14:02:50.113Z,18.55
2022-09-20T14:05:22.926Z,18.95
2022-09-20T14:08:41.444Z,18.97
2022-09-20T14:11:29.578Z,18.61
2022-09-20T14:13:59.263Z,18.91
2022-09-20T14:16:42.397Z,19.20
2022-09-20T14:19:10.738Z,19.82
2022-09-20T14:21:40.731Z,19.77
2022-09-20T14:24:12.572Z,19.37
2022-09-20T14:26:42.398Z,18.99
2022-09-20T14:29:29.285Z,19.19
2022-09-20T14:31:59.261Z,19.20
2022-09-20T14:34:27.596Z,19.46
2022-09-20T14:37:05.199Z,19.53
2022-09-20T14:39:33.516Z,19.89
2022-09-20T14:42:01.440Z,19.47
2022-09-20T14:44:32.928Z,19.77
2022-09-20T14:47:15.091Z,20.33
2022-09-20T14:49:45.045Z,19.78
2022-09-20T14:52:43.836Z,19.23
2022-09-20T14:55:28.756Z,18.77
2022-09-20T14:58:02.292Z,18.55
2022-09-20T15:00:30.987Z,17.74
2022-09-20T15:03:08.011Z,17.64
2022-09-20T15:05:36.159Z,17.27
2022-09-20T15:08:05.206Z,18.08
2022-09-20T15:10:33.353Z,18.77
2022-09-20T15:13:01.306Z,17.84
2022-09-20T15:15:29.359Z,17.54
2022-09-20T15:17:57.577Z,18.62
2022-09-20T15:20:26.945Z,20.02
2022-09-20T15:22:55.488Z,20.41
2022-09-20T15:25:24.789Z,20.56
2022-09-20T15:27:53.193Z,20.94
2022-09-20T15:30:21.471Z,21.40
2022-09-20T15:32:49.702Z,21.54
2022-09-20T15:35:17.747Z,20.57
2022-09-20T15:37:57.384Z,20.59
2022-09-20T15:40:26.002Z,19.92
2022-09-20T15:43:05.593Z,20.20
2022-09-20T15:45:37.360Z,20.48
2022-09-20T15:48:06.948Z,19.41
2022-09-20T15:50:38.961Z,20.19
2022-09-20T15:53:08.507Z,21.08
2022-09-20T15:55:38.006Z,22.01
2022-09-20T15:58:14.489Z,21.64
2022-09-20T16:00:42.679Z,21.71
2022-09-20T16:03:10.736Z,22.30
2022-09-20T16:05:38.776Z,22.74
2022-09-20T16:08:08.428Z,23.22
2022-09-20T16:10:39.301Z,23.38
2022-09-20T16:13:07.272Z,22.97
2022-09-20T16:15:38.683Z,22.79
2022-09-20T16:18:24.750Z,22.92
2022-09-20T16:20:53.081Z,23.22
2022-09-20T16:23:26.013Z,22.26
2022-09-20T16:25:55.306Z,21.42
2022-09-20T16:28:29.582Z,20.60
2022-09-20T16:31:08.922Z,18.57
2022-09-20T16:33:37.520Z,18.39
2022-09-20T16:36:06.041Z,17.63
2022-09-20T16:38:38.934Z,17.70
2022-09-20T16:41:08.536Z,17.50
2022-09-20T16:43:38.083Z,16.65
2022-09-20T16:46:07.035Z,16.71
2022-09-20T16:48:35.980Z,16.76
2022-09-20T16:51:03.961Z,16.12
2022-09-20T16:53:32.188Z,15.92
2022-09-20T16:56:02.045Z,16.13
2022-09-20T16:58:30.485Z,16.48
2022-09-20T17:01:05.595Z,16.56
2022-09-20T17:03:34.210Z,16.27
2022-09-20T17:06:03.456Z,16.13
2022-09-20T17:08:32.389Z,15.53
2022-09-20T17:11:06.647Z,15.86
2022-09-20T17:13:34.688Z,15.60
2022-09-20T17:16:04.315Z,15.62
2022-09-20T17:18:33.270Z,15.03
2022-09-20T17:21:04.873Z,15.03
2022-09-20T17:23:34.803Z,14.84
2022-09-20T17:26:07.982Z,14.46
2022-09-20T17:28:37.731Z,14.18
2022-09-20T17:31:06.676Z,13.75
2022-09-20T17:33:35.601Z,13.62
2022-09-20T17:36:04.473Z,13.67
2022-09-20T17:38:35.241Z,13.65
2022-09-20T17:41:17.424Z,13.52
2022-09-20T17:43:46.349Z,13.61
2022-09-20T17:46:16.530Z,13.50
2022-09-20T17:48:50.641Z,13.65
2022-09-20T17:51:19.947Z,13.85
2022-09-20T17:53:48.265Z,13.87
2022-09-20T17:56:17.905Z,14.07
2022-09-20T17:58:46.026Z,13.81
2022-09-20T18:01:15.602Z,14.04
2022-09-20T18:03:45.069Z,13.99
2022-09-20T18:06:14.989Z,13.59
2022-09-20T18:08:53.095Z,13.10
2022-09-20T18:11:32.840Z,12.87
2022-09-20T18:14:13.456Z,12.62
2022-09-20T18:16:44.758Z,12.36
2022-09-20T18:19:37.467Z,12.30
2022-09-20T18:22:06.339Z,12.38
2022-09-20T18:28:47.015Z,12.14
2022-09-20T18:34:39.039Z,11.62
2022-09-20T18:37:17.412Z,11.61
2022-09-20T18:39:45.728Z,11.65
2022-09-20T18:42:22.964Z,11.67
2022-09-20T18:44:51.704Z,11.70
2022-09-20T18:47:30.795Z,11.63
2022-09-20T18:49:59.391Z,11.57
2022-09-20T18:52:27.432Z,11.75
2022-09-20T18:54:56.063Z,12.30
2022-09-20T18:57:24.560Z,12.41
2022-09-20T18:59:54.648Z,12.07
2022-09-20T19:02:38.739Z,11.79
2022-09-20T19:05:21.963Z,12.00
2022-09-20T19:07:57.872Z,11.87
2022-09-20T19:10:29.963Z,11.85
2022-09-20T19:13:03.327Z,11.69
2022-09-20T19:15:48.955Z,11.82
2022-09-20T19:18:28.878Z,11.67
2022-09-20T19:20:59.685Z,11.63
2022-09-20T19:23:41.284Z,11.62
2022-09-20T19:26:14.908Z,11.98
2022-09-20T19:28:45.653Z,11.94
2022-09-20T19:31:17.462Z,11.61
2022-09-20T19:33:48.484Z,11.44
2022-09-20T19:36:17.763Z,11.43
2022-09-20T19:38:50.593Z,10.92
2022-09-20T19:41:28.862Z,11.36
2022-09-20T19:44:04.519Z,11.22
2022-09-20T19:46:42.366Z,11.39
2022-09-20T19:49:15.440Z,11.29
2022-09-20T19:51:45.141Z,10.72
2022-09-20T19:54:19.008Z,10.43
2022-09-20T19:56:55.094Z,10.32
2022-09-20T19:59:31.798Z,10.28
2022-09-20T20:02:00.453Z,10.37
2022-09-20T20:04:29.121Z,10.45
2022-09-20T20:07:03.341Z,10.49
2022-09-20T20:09:37.442Z,10.43
2022-09-20T20:12:10.358Z,10.42
2022-09-20T20:14:48.269Z,10.40
2022-09-20T20:17:26.825Z,10.42
2022-09-20T20:20:07.497Z,10.44
2022-09-20T20:22:56.923Z,10.55
2022-09-20T20:25:29.950Z,10.59
2022-09-20T20:27:57.939Z,10.40
2022-09-20T20:30:27.245Z,10.36
2022-09-20T20:32:58.240Z,10.42
2022-09-20T20:35:26.876Z,10.20
2022-09-20T20:37:54.960Z,10.05
2022-09-20T20:40:22.976Z,10.07
2022-09-20T20:42:50.969Z,9.97
2022-09-20T20:45:19.708Z,9.82
2022-09-20T20:47:48.993Z,9.79
2022-09-20T20:50:17.076Z,9.89
2022-09-20T20:52:45.026Z,10.34
2022-09-20T20:55:13.565Z,10.46
2022-09-20T20:57:41.578Z,10.47
2022-09-20T21:00:10.778Z,10.37
2022-09-20T21:02:38.711Z,10.25
2022-09-20T21:05:09.058Z,10.21
2022-09-20T21:07:37.104Z,10.19
2022-09-20T21:10:05.590Z,10.25
2022-09-20T21:12:33.523Z,10.34
2022-09-20T21:15:01.509Z,10.41
2022-09-20T21:17:33.865Z,10.29
2022-09-20T21:20:03.982Z,10.35
2022-09-20T21:22:33.917Z,10.30
2022-09-20T21:25:01.813Z,10.14
2022-09-20T21:27:30.135Z,10.28
2022-09-20T21:29:58.299Z,10.33
2022-09-20T21:32:26.169Z,10.14
2022-09-20T21:34:54.419Z,9.96
2022-09-20T21:37:22.332Z,9.70
2022-09-20T21:39:51.602Z,9.57
2022-09-20T21:42:19.516Z,9.58
2022-09-20T21:44:47.418Z,9.59
2022-09-20T21:47:20.584Z,9.48
2022-09-20T21:49:48.549Z,9.24
2022-09-20T21:52:16.452Z,9.16
2022-09-20T21:54:46.501Z,8.92
2022-09-20T21:57:16.053Z,8.92
2022-09-20T21:59:43.933Z,9.17
2022-09-20T22:02:11.874Z,9.18
2022-09-20T22:04:39.761Z,8.97
2022-09-20T22:07:08.014Z,8.85
2022-09-20T22:09:35.892Z,9.03
2022-09-20T22:12:03.827Z,9.11
2022-09-20T22:14:35.137Z,9.08
2022-09-20T22:17:03.074Z,9.02
2022-09-20T22:19:32.112Z,9.09
2022-09-20T22:22:00.045Z,9.15
2022-09-20T22:24:28.042Z,9.10
2022-09-20T22:26:55.948Z,9.13
2022-09-20T22:29:23.914Z,9.05
2022-09-20T22:31:53.442Z,9.01
2022-09-20T22:34:23.685Z,8.82
2022-09-20T22:36:52.210Z,8.73
2022-09-20T22:39:20.552Z,8.84
2022-09-20T22:41:49.689Z,8.89
2022-09-20T22:44:17.701Z,8.98
2022-09-20T22:46:45.702Z,8.95
2022-09-20T22:49:14.969Z,9.07
2022-09-20T22:51:42.869Z,9.01
2022-09-20T22:54:12.773Z,8.91
2022-09-20T22:56:41.380Z,8.84
2022-09-20T22:59:10.690Z,8.85
2022-09-20T23:01:41.208Z,8.93
2022-09-20T23:04:10.818Z,9.05
2022-09-20T23:06:41.486Z,8.98
2022-09-20T23:09:11.336Z,9.10
2022-09-20T23:11:39.902Z,9.20
2022-09-20T23:14:07.957Z,9.17
2022-09-20T23:16:37.551Z,9.15
2022-09-20T23:19:06.786Z,8.90
2022-09-20T23:21:35.661Z,8.80
2022-09-20T23:24:06.454Z,8.66
2022-09-20T23:26:35.807Z,8.51
2022-09-20T23:29:05.404Z,8.37
2022-09-20T23:31:36.210Z,8.39
2022-09-20T23:34:06.421Z,8.38
2022-09-20T23:36:36.012Z,8.38
2022-09-20T23:39:05.449Z,8.46
2022-09-20T23:41:33.541Z,8.52
2022-09-20T23:44:01.449Z,8.58
2022-09-20T23:46:29.356Z,8.64
2022-09-20T23:48:57.288Z,8.68
2022-09-20T23:51:26.545Z,8.58
2022-09-20T23:53:55.050Z,8.57
2022-09-20T23:56:24.878Z,8.58
2022-09-20T23:58:53.844Z,8.70
